Nearby Weather Observations


KTIP - Rantoul, Illinois, USA
Distance from station: ENE 12mi, 19km
Updated: Thu, 13-Dec-2018 2:15am CST
Clear
Clear
 Wind from SSE
Wind: SSE 5 mph , 7 km/h
Temperature: 30°F , -1°C
Wind Chill: 25°F , -4°C
Dew Point: 30°F , -1°C
Humidity: 100%
Barometer: 30.02 inHg , 1016.6 hPa
Clouds: Clear
Visibility: 7 miles , 11 km
2018/12/13 08:15 KTIP 130815Z AUTO 15004KT 7SM CLR M01/M01 A3002 RMK AO2 T10091010
KCMI - Champaign/Urbana, Illinois, USA
Distance from station: SSE 14mi, 22km
Updated: Thu, 13-Dec-2018 1:53am CST
Mist, Clear
Mist, Clear
 Wind from ESE
Wind: ESE 9 mph , 15 km/h
Temperature: 28°F , -2°C
Wind Chill: 19°F , -7°C
Dew Point: 27°F , -3°C
Humidity: 93%
Barometer: 30.01 inHg , 1016.3 hPa
Summary: Mist
Clouds: Clear
Visibility: 6 miles , 10 km
2018/12/13 07:53 KCMI 130753Z AUTO 11008KT 6SM BR CLR M02/M03 A3001 RMK AO2 SLP168 T10171028
 
KBMI - Bloomington/Norm, Illinois, USA
Distance from station: WNW 34mi, 55km
Updated: Thu, 13-Dec-2018 1:56am CST
Clear
Clear
 Wind from SE
Wind: SE 9 mph , 15 km/h
Temperature: 27°F , -3°C
Wind Chill: 18°F , -8°C
Dew Point: 27°F , -3°C
Humidity: 100%
Barometer: 29.99 inHg , 1015.6 hPa
Clouds: Clear
Visibility: 10 miles , 16 km
2018/12/13 07:56 KBMI 130756Z AUTO 13008KT 10SM CLR M03/M03 A2999 RMK AO2 SLP183 T10281033
KDEC - Decatur, Illinois, USA
Distance from station: SW 37mi, 60km
Updated: Thu, 13-Dec-2018 1:54am CST
Clear
Clear
 Wind from ESE
Wind: ESE 7 mph , 11 km/h
Temperature: 28°F , -2°C
Wind Chill: 21°F , -6°C
Dew Point: 27°F , -3°C
Humidity: 93%
Barometer: 30.00 inHg , 1015.9 hPa
Clouds: Clear
Visibility: 7 miles , 11 km
2018/12/13 07:54 KDEC 130754Z AUTO 11006KT 7SM CLR M02/M03 A3000 RMK AO2 SLP164 T10171028
 
KDNV - Danville, Illinois, USA
Distance from station: E 40mi, 65km
Updated: Thu, 13-Dec-2018 2:15am CST
Clear
Clear
 Wind from SSE
Wind: SSE 3 mph , 6 km/h
Temperature: 30°F , -1°C
Dew Point: 28°F , -2°C
Humidity: 93%
Barometer: 30.01 inHg , 1016.3 hPa
Clouds: Clear
Visibility: 7 miles , 11 km
2018/12/13 08:15 KDNV 130815Z AUTO 15003KT 7SM CLR M01/M02 A3001 RMK AO2 T10151016
KAAA - Lincoln, Illinois, USA
Distance from station: W 52mi, 83km
Updated: Thu, 13-Dec-2018 2:15am CST
Clear
Clear
 Wind from E
Wind: E 5 mph , 7 km/h
Temperature: 30°F , -1°C
Wind Chill: 25°F , -4°C
Dew Point: 30°F , -1°C
Humidity: 100%
Barometer: 29.99 inHg , 1015.6 hPa
Clouds: Clear
Visibility: 7 miles , 11 km
2018/12/13 08:15 KAAA 130815Z AUTO 10004KT 7SM CLR M01/M01 A2999 RMK AO2 T10101015
 
KMTO - Mattoon/Charlest, Illinois, USA
Distance from station: S 52mi, 84km
Updated: Thu, 13-Dec-2018 1:53am CST
Overcast
Overcast
 Wind from calm
Wind: Calm
Temperature: 30°F , -1°C
Dew Point: 27°F , -3°C
Humidity: 86%
Barometer: 30.00 inHg , 1015.9 hPa
Clouds: Overcast
Visibility: 10 miles , 16 km
Cloud details: Overcast 1300 ft
2018/12/13 07:53 KMTO 130753Z AUTO 00000KT 10SM OVC013 M01/M03 A3000 RMK AO2 SLP163 T10061028
KSPI - Springfield, Illinois, USA
Distance from station: WSW 74mi, 120km
Updated: Thu, 13-Dec-2018 1:52am CST
Clear
Clear
 Wind from E
Wind: E 5 mph , 7 km/h
Temperature: 28°F , -2°C
Wind Chill: 22°F , -6°C
Dew Point: 27°F , -3°C
Humidity: 93%
Barometer: 29.97 inHg , 1014.9 hPa
Clouds: Clear
Visibility: 8 miles , 13 km
2018/12/13 07:52 KSPI 130752Z AUTO 10004KT 8SM CLR M02/M03 A2997 RMK AO2 SLP154 T10171028 $
 
KLAF - Lafayette, Indiana, USA
Distance from station: E 76mi, 123km
Updated: Thu, 13-Dec-2018 1:54am CST
Mist, Clear
Mist, Clear
 Wind from calm
Wind: Calm
Temperature: 23°F , -5°C
Dew Point: 21°F , -6°C
Humidity: 93%
Barometer: 30.03 inHg , 1016.9 hPa
Summary: Mist
Clouds: Clear
Visibility: 4 miles , 6 km
2018/12/13 07:54 KLAF 130754Z AUTO 00000KT 4SM BR CLR M05/M06 A3003 RMK AO2 SLP173 I1000 T10501056
KPIA - Peoria, Illinois, USA
Distance from station: WNW 76mi, 123km
Updated: Thu, 13-Dec-2018 1:54am CST
Mist, Clear
Mist, Clear
 Wind from E
Wind: E 3 mph , 6 km/h
Temperature: 28°F , -2°C
Dew Point: 27°F , -3°C
Humidity: 93%
Barometer: 29.98 inHg , 1015.2 hPa
Summary: Mist
Clouds: Clear
Visibility: 6 miles , 10 km
2018/12/13 07:54 KPIA 130754Z 09003KT 6SM BR CLR M02/M03 A2998 RMK AO2 SLP157 I1000 T10221033
 
KHUF - Terre Haute, Indiana, USA
Distance from station: SE 77mi, 124km
Updated: Thu, 13-Dec-2018 1:53am CST
Overcast
Overcast
 Wind from calm
Wind: Calm
Temperature: 34°F , 1°C
Dew Point: 32°F , 0°C
Humidity: 93%
Barometer: 30.03 inHg , 1016.9 hPa
Clouds: Overcast
Visibility: 10 miles , 16 km
Cloud details: Overcast 1700 ft
2018/12/13 07:53 KHUF 130753Z 00000KT 10SM OVC017 01/00 A3003 RMK AO2 SLP173 T00060000
K1H2 - Effingham, Illinois, USA
Distance from station: S 80mi, 129km
Updated: Thu, 13-Dec-2018 2:15am CST
Mist, Clear
Mist, Clear
 Wind from E
Wind: E 5 mph , 7 km/h
Temperature: 30°F , -1°C
Wind Chill: 25°F , -4°C
Dew Point: 30°F , -1°C
Humidity: 100%
Barometer: 30.02 inHg , 1016.6 hPa
Summary: Mist
Clouds: Clear
Visibility: 4 miles , 6 km
2018/12/13 08:15 K1H2 130815Z AUTO 10004KT 4SM BR CLR M01/M01 A3002 RMK AO2 T10101012
 
KIND - Indianapolis, Indiana, USA
Distance from station: ESE 117mi, 133km
Updated: Thu, 13-Dec-2018 1:54am CST
Mostly cloudy
Mostly cloudy
 Wind from NNE
Wind: NNE 3 mph , 6 km/h
Temperature: 30°F , -1°C
Dew Point: 28°F , -2°C
Humidity: 93%
Barometer: 30.03 inHg , 1016.9 hPa
Clouds: Mostly cloudy
Visibility: 10 miles , 16 km
Cloud details: Mostly cloudy 2100 ft
2018/12/13 07:54 KIND 130754Z 03003KT 10SM BKN021 M01/M02 A3003 RMK AO2 SLP175 T10061017
KORD - Chicago O'hare, Illinois, USA
Distance from station: N 126mi, 203km
Updated: Thu, 13-Dec-2018 1:51am CST
Mist, Clear
Mist, Clear
 Wind from calm
Wind: Calm
Temperature: 27°F , -3°C
Dew Point: 25°F , -4°C
Humidity: 93%
Barometer: 29.98 inHg , 1015.2 hPa
Summary: Mist
Clouds: Clear
Visibility: 6 miles , 10 km
2018/12/13 07:51 KORD 130751Z 00000KT 6SM BR CLR M03/M04 A2998 RMK AO2 SLP159 T10281044
 
KSTL - St. Louis, Missouri, USA
Distance from station: SW 150mi, 185km
Updated: Thu, 13-Dec-2018 1:51am CST
Few Clouds
Few Clouds
 Wind from E
Wind: E 7 mph , 11 km/h
Temperature: 36°F , 2°C
Wind Chill: 30°F , -1°C
Dew Point: 36°F , 2°C
Humidity: 100%
Barometer: 29.94 inHg , 1013.9 hPa
Clouds: Few Clouds
Visibility: 9 miles , 14 km
Cloud details: Few Clouds 4000 ft
2018/12/13 07:51 KSTL 130751Z 10006KT 9SM FEW040 02/02 A2994 RMK AO2 SLP141 T00220017